Time;durP1;ratioP1;P1;durP2;ratioP2;P2;SDS_P1;SDS_P2;PMS_P1;PMS_P2;Temp;Humidity;BMP_temperature;BMP_pressure;BME280_temperature;BME280_humidity;BME280_pressure;Samples;Min_cycle;Max_cycle;Signal;HPM_P1;HPM_P2
2022/06/04 00:00:27;;;;;;;3.65;1.60;;;;;;;;;;7390063;19;20010;-77
2022/06/04 00:02:53;;;;;;;3.17;1.73;;;;;;;;;;7388613;19;20070;-77
2022/06/04 00:05:24;;;;;;;21.88;3.00;;;;;;;;;;7389870;19;20018;-77
2022/06/04 00:07:54;;;;;;;17.00;2.25;;;;;;;;;;7384106;19;20006;-76
2022/06/04 00:15:53;;;;;;;1.40;1.30;;;;;;;;;;7391869;19;20093;-76
2022/06/04 00:18:19;;;;;;;1.73;1.45;;;;;;;;;;7386224;19;20007;-77
2022/06/04 00:20:45;;;;;;;1.30;1.00;;;;;;;;;;7393607;19;20071;-76
2022/06/04 00:23:12;;;;;;;4.38;1.10;;;;;;;;;;7388513;19;20030;-77
2022/06/04 00:25:41;;;;;;;3.55;1.80;;;;;;;;;;7391270;19;20014;-77
2022/06/04 00:28:07;;;;;;;1.67;1.48;;;;;;;;;;7387416;19;20515;-77
2022/06/04 00:30:33;;;;;;;24.15;2.28;;;;;;;;;;7391082;19;20009;-77
2022/06/04 00:32:59;;;;;;;6.28;1.52;;;;;;;;;;7389656;19;20397;-77
2022/06/04 00:35:25;;;;;;;18.48;1.65;;;;;;;;;;7389473;19;20021;-75
2022/06/04 00:37:50;;;;;;;1.20;1.10;;;;;;;;;;7387868;19;20010;-77
2022/06/04 00:40:27;;;;;;;3.08;1.40;;;;;;;;;;7391798;19;20019;-77
2022/06/04 00:42:56;;;;;;;0.70;0.70;;;;;;;;;;7389315;19;20155;-77
2022/06/04 00:45:21;;;;;;;0.90;0.90;;;;;;;;;;7390719;19;20014;-76
2022/06/04 00:47:49;;;;;;;2.55;1.02;;;;;;;;;;7386988;19;20066;-76
2022/06/04 00:50:17;;;;;;;1.25;1.02;;;;;;;;;;7391720;19;20014;-76
2022/06/04 00:52:46;;;;;;;5.53;1.60;;;;;;;;;;7390724;19;20013;-76
2022/06/04 00:55:12;;;;;;;1.65;1.10;;;;;;;;;;7414535;19;20043;-76
2022/06/04 00:57:59;;;;;;;2.67;1.27;;;;;;;;;;7411572;19;20013;-76
2022/06/04 01:00:33;;;;;;;1.50;1.10;;;;;;;;;;7410427;19;20013;-77
2022/06/04 01:03:04;;;;;;;1.60;1.50;;;;;;;;;;7412072;19;20025;-77
2022/06/04 01:05:53;;;;;;;4.97;2.10;;;;;;;;;;7387924;19;20034;-77
2022/06/04 01:08:36;;;;;;;4.93;1.20;;;;;;;;;;7387857;19;20011;-76
2022/06/04 01:11:11;;;;;;;6.55;2.15;;;;;;;;;;7389093;19;20011;-76
2022/06/04 01:14:07;;;;;;;28.73;6.55;;;;;;;;;;7386247;19;20472;-77
2022/06/04 01:16:45;;;;;;;45.90;4.40;;;;;;;;;;7389547;19;20003;-77
2022/06/04 01:19:39;;;;;;;5.28;2.05;;;;;;;;;;7385847;19;20014;-76
2022/06/04 01:22:49;;;;;;;5.80;1.25;;;;;;;;;;7383463;19;20039;-77
2022/06/04 01:25:36;;;;;;;33.55;2.90;;;;;;;;;;7388824;19;20049;-77
2022/06/04 01:28:06;;;;;;;10.93;1.60;;;;;;;;;;7387206;19;20357;-77
2022/06/04 01:30:50;;;;;;;1.25;1.10;;;;;;;;;;7390285;19;20452;-77
2022/06/04 01:33:25;;;;;;;9.20;2.08;;;;;;;;;;7387619;19;20108;-77
2022/06/04 01:36:04;;;;;;;4.40;1.33;;;;;;;;;;7388168;19;20032;-77
2022/06/04 01:38:41;;;;;;;8.82;1.10;;;;;;;;;;7386664;19;20014;-77
2022/06/04 01:41:13;;;;;;;3.65;1.30;;;;;;;;;;7388333;19;20014;-77
2022/06/04 01:43:46;;;;;;;1.05;1.05;;;;;;;;;;7386563;19;20028;-77
2022/06/04 01:46:27;;;;;;;3.13;1.55;;;;;;;;;;7390278;19;20072;-77
2022/06/04 01:48:58;;;;;;;7.40;1.20;;;;;;;;;;7384055;19;20003;-76
2022/06/04 01:51:28;;;;;;;5.63;1.02;;;;;;;;;;7389365;19;20583;-77
2022/06/04 01:53:59;;;;;;;0.77;0.77;;;;;;;;;;7387969;19;20018;-76
2022/06/04 01:56:34;;;;;;;0.75;0.68;;;;;;;;;;7397647;19;20362;-77
2022/06/04 01:59:21;;;;;;;;;;;;;;;;;;7396546;19;20516;-77
2022/06/04 02:01:50;;;;;;;1.20;1.10;;;;;;;;;;7394760;19;19919;-77
2022/06/04 02:04:22;;;;;;;1.80;1.30;;;;;;;;;;7394935;19;20006;-77
2022/06/04 02:09:39;;;;;;;2.17;1.17;;;;;;;;;;7397967;19;20047;-77
2022/06/04 02:12:06;;;;;;;1.48;1.38;;;;;;;;;;7393742;19;20018;-76
2022/06/04 02:14:31;;;;;;;0.90;0.90;;;;;;;;;;7392904;19;20086;-76
2022/06/04 02:17:03;;;;;;;1.30;0.88;;;;;;;;;;7391501;19;20512;-77
2022/06/04 02:19:29;;;;;;;1.02;1.02;;;;;;;;;;7392403;19;20080;-77
2022/06/04 02:21:54;;;;;;;2.63;1.35;;;;;;;;;;7388603;19;20041;-76
2022/06/04 02:24:20;;;;;;;5.53;1.48;;;;;;;;;;7391972;19;20014;-75
2022/06/04 02:26:46;;;;;;;2.35;1.10;;;;;;;;;;7393870;19;20011;-76
2022/06/04 02:29:12;;;;;;;3.40;1.38;;;;;;;;;;7390337;19;20007;-77
2022/06/04 02:31:54;;;;;;;1.95;1.13;;;;;;;;;;7392956;19;20017;-76
2022/06/04 02:34:34;;;;;;;1.52;1.08;;;;;;;;;;7391397;19;20522;-76
2022/06/04 02:37:05;;;;;;;2.80;1.23;;;;;;;;;;7391089;19;20366;-76
2022/06/04 02:39:42;;;;;;;1.15;0.93;;;;;;;;;;7389927;19;20022;-76
2022/06/04 02:42:17;;;;;;;1.83;0.90;;;;;;;;;;7392147;19;20017;-76
2022/06/04 02:44:57;;;;;;;0.82;0.82;;;;;;;;;;7393768;19;20017;-76
2022/06/04 02:47:39;;;;;;;1.00;0.90;;;;;;;;;;7388439;19;20006;-76
2022/06/04 02:50:15;;;;;;;5.50;0.90;;;;;;;;;;7393572;19;20006;-76
2022/06/04 02:52:41;;;;;;;1.13;1.10;;;;;;;;;;7391568;19;20032;-76
2022/06/04 02:55:12;;;;;;;3.58;1.00;;;;;;;;;;7387997;19;20025;-76
2022/06/04 02:57:41;;;;;;;7.03;0.93;;;;;;;;;;7390271;19;20018;-76
2022/06/04 03:00:10;;;;;;;3.17;1.15;;;;;;;;;;7393567;19;20007;-76
2022/06/04 03:02:36;;;;;;;7.32;1.40;;;;;;;;;;7390745;19;20006;-77
2022/06/04 03:05:09;;;;;;;1.92;1.13;;;;;;;;;;7392800;19;20036;-76
2022/06/04 03:07:39;;;;;;;9.80;1.48;;;;;;;;;;7390198;19;20094;-77
2022/06/04 03:10:11;;;;;;;2.38;1.00;;;;;;;;;;7387461;19;20855;-76
2022/06/04 03:12:37;;;;;;;5.30;1.50;;;;;;;;;;7392149;19;20003;-76
2022/06/04 03:15:03;;;;;;;7.10;1.63;;;;;;;;;;7392333;19;20027;-75
2022/06/04 03:17:29;;;;;;;1.20;1.13;;;;;;;;;;7389592;19;20459;-77
2022/06/04 03:19:54;;;;;;;1.20;1.00;;;;;;;;;;7393752;19;20482;-77
2022/06/04 03:22:20;;;;;;;2.90;1.15;;;;;;;;;;7391470;19;20021;-77
2022/06/04 03:24:45;;;;;;;3.22;1.50;;;;;;;;;;7391639;19;20006;-76
2022/06/04 03:27:10;;;;;;;6.55;1.25;;;;;;;;;;7388414;19;21463;-77
2022/06/04 03:29:36;;;;;;;5.60;2.42;;;;;;;;;;7392923;19;20014;-77
2022/06/04 03:32:01;;;;;;;2.33;1.55;;;;;;;;;;7389722;19;20023;-76
2022/06/04 03:34:26;;;;;;;1.20;1.10;;;;;;;;;;7393488;19;20122;-76
2022/06/04 03:36:52;;;;;;;1.08;1.08;;;;;;;;;;7391683;19;20015;-77
2022/06/04 03:39:17;;;;;;;8.55;1.30;;;;;;;;;;7392376;19;20102;-76
2022/06/04 03:41:42;;;;;;;4.70;1.20;;;;;;;;;;7394326;19;20017;-77
2022/06/04 03:44:08;;;;;;;1.10;1.00;;;;;;;;;;7387372;19;20018;-77
2022/06/04 03:46:33;;;;;;;1.02;0.93;;;;;;;;;;7391510;19;20417;-76
2022/06/04 03:48:59;;;;;;;2.03;1.10;;;;;;;;;;7391732;19;20034;-77
2022/06/04 03:51:26;;;;;;;0.95;0.95;;;;;;;;;;7393725;19;20023;-77
2022/06/04 03:53:52;;;;;;;1.00;1.00;;;;;;;;;;7390272;19;20594;-77
2022/06/04 03:56:17;;;;;;;3.28;1.10;;;;;;;;;;7392251;19;20007;-77
2022/06/04 03:58:43;;;;;;;1.20;1.10;;;;;;;;;;7390161;19;20011;-76
2022/06/04 04:01:18;;;;;;;1.90;1.10;;;;;;;;;;7389633;19;21710;-77
2022/06/04 04:03:44;;;;;;;1.35;0.98;;;;;;;;;;7389282;19;20027;-77
2022/06/04 04:06:19;;;;;;;1.60;1.25;;;;;;;;;;7393299;19;20007;-77
2022/06/04 04:08:45;;;;;;;1.77;1.60;;;;;;;;;;7388152;19;20023;-77
2022/06/04 04:11:16;;;;;;;13.45;2.20;;;;;;;;;;7392966;19;20107;-77
2022/06/04 04:13:42;;;;;;;13.43;1.70;;;;;;;;;;7388390;19;20015;-78
2022/06/04 04:16:10;;;;;;;34.30;2.33;;;;;;;;;;7389319;19;20007;-77
2022/06/04 04:18:35;;;;;;;10.93;1.90;;;;;;;;;;7382121;19;20011;-78
2022/06/04 04:21:09;;;;;;;1.23;1.13;;;;;;;;;;7391231;19;20010;-78
2022/06/04 04:23:34;;;;;;;1.15;1.10;;;;;;;;;;7386694;19;20022;-77
2022/06/04 04:26:01;;;;;;;2.80;1.55;;;;;;;;;;7391575;19;20039;-77
2022/06/04 04:28:26;;;;;;;24.88;2.13;;;;;;;;;;7389032;19;20054;-77
2022/06/04 04:30:52;;;;;;;13.02;2.55;;;;;;;;;;7394285;19;20572;-78
2022/06/04 04:33:17;;;;;;;6.32;1.65;;;;;;;;;;7387914;19;20002;-77
2022/06/04 04:35:44;;;;;;;25.85;1.55;;;;;;;;;;7393141;19;20066;-77
2022/06/04 04:38:11;;;;;;;12.57;1.80;;;;;;;;;;7386776;19;20146;-77
2022/06/04 04:40:37;;;;;;;20.38;2.28;;;;;;;;;;7393471;19;20019;-78
2022/06/04 04:43:03;;;;;;;8.88;2.05;;;;;;;;;;7386413;19;20011;-77
2022/06/04 04:45:28;;;;;;;7.70;1.50;;;;;;;;;;7390303;19;20321;-78
2022/06/04 04:47:56;;;;;;;3.80;1.50;;;;;;;;;;7384412;19;20010;-77
2022/06/04 04:50:32;;;;;;;7.78;1.35;;;;;;;;;;7394609;19;20035;-79
2022/06/04 04:52:59;;;;;;;13.60;2.90;;;;;;;;;;7394401;19;20030;-79
2022/06/04 04:55:25;;;;;;;4.95;1.83;;;;;;;;;;7397105;19;20006;-79
2022/06/04 04:57:50;;;;;;;4.43;0.90;;;;;;;;;;7395226;19;20111;-79
2022/06/04 05:00:17;;;;;;;0.90;0.90;;;;;;;;;;7389422;19;20014;-79
2022/06/04 05:02:43;;;;;;;2.25;0.98;;;;;;;;;;7379612;19;20017;-79
2022/06/04 05:05:11;;;;;;;8.32;1.42;;;;;;;;;;7385837;19;20039;-78
2022/06/04 05:07:37;;;;;;;6.38;1.17;;;;;;;;;;7390445;19;20113;-80
2022/06/04 05:10:02;;;;;;;1.95;0.90;;;;;;;;;;7386841;19;20018;-78
2022/06/04 05:12:28;;;;;;;3.35;1.10;;;;;;;;;;7389221;19;20010;-80
2022/06/04 05:14:54;;;;;;;5.95;1.27;;;;;;;;;;7390914;19;20062;-80
2022/06/04 05:17:19;;;;;;;4.43;1.33;;;;;;;;;;7390415;19;20037;-79
2022/06/04 05:19:44;;;;;;;4.03;1.20;;;;;;;;;;7387462;19;20010;-80
2022/06/04 05:22:10;;;;;;;2.22;1.00;;;;;;;;;;7387677;19;20532;-80
2022/06/04 05:24:36;;;;;;;0.95;0.85;;;;;;;;;;7386061;19;20039;-80
2022/06/04 05:27:02;;;;;;;1.30;1.20;;;;;;;;;;7388770;19;20305;-79
2022/06/04 05:29:29;;;;;;;1.23;1.13;;;;;;;;;;7382212;19;20014;-80
2022/06/04 05:31:56;;;;;;;0.70;0.70;;;;;;;;;;7389984;19;20103;-80
2022/06/04 05:34:21;;;;;;;0.98;0.93;;;;;;;;;;7385875;19;20018;-80
2022/06/04 05:36:47;;;;;;;1.75;1.27;;;;;;;;;;7387569;19;20017;-80
2022/06/04 05:39:13;;;;;;;1.17;1.13;;;;;;;;;;7389913;19;20484;-78
2022/06/04 05:41:40;;;;;;;1.20;1.10;;;;;;;;;;7389643;19;20023;-80
2022/06/04 05:44:06;;;;;;;1.30;1.20;;;;;;;;;;7383165;19;20471;-80
2022/06/04 05:46:32;;;;;;;1.20;1.10;;;;;;;;;;7389445;19;20030;-80
2022/06/04 05:48:59;;;;;;;1.10;1.10;;;;;;;;;;7385689;19;20014;-79
2022/06/04 05:51:26;;;;;;;1.30;1.20;;;;;;;;;;7386589;19;20018;-78
2022/06/04 05:53:52;;;;;;;1.77;1.55;;;;;;;;;;7384912;19;20010;-78
2022/06/04 05:56:25;;;;;;;1.13;1.00;;;;;;;;;;7389405;19;20015;-78
2022/06/04 05:58:54;;;;;;;1.27;0.98;;;;;;;;;;7386184;19;20093;-78
2022/06/04 06:01:22;;;;;;;2.45;1.25;;;;;;;;;;7390978;19;20014;-78
2022/06/04 06:03:47;;;;;;;1.17;1.10;;;;;;;;;;7387369;19;20151;-79
2022/06/04 06:06:21;;;;;;;3.17;1.38;;;;;;;;;;7388981;19;20351;-79
2022/06/04 06:08:46;;;;;;;1.40;1.10;;;;;;;;;;7386189;19;20019;-78
2022/06/04 06:11:15;;;;;;;1.35;1.25;;;;;;;;;;7390050;19;20035;-79
2022/06/04 06:13:42;;;;;;;1.30;1.20;;;;;;;;;;7383971;19;20014;-79
2022/06/04 06:16:16;;;;;;;2.65;1.10;;;;;;;;;;7391208;19;20398;-79
2022/06/04 06:18:42;;;;;;;2.45;0.98;;;;;;;;;;7386981;19;20468;-79
2022/06/04 06:21:10;;;;;;;2.92;1.10;;;;;;;;;;7391419;19;20007;-79
2022/06/04 06:23:37;;;;;;;1.40;0.80;;;;;;;;;;7385853;19;20014;-79
2022/06/04 06:26:06;;;;;;;1.30;1.20;;;;;;;;;;7392130;19;20013;-81
2022/06/04 06:28:33;;;;;;;1.25;1.10;;;;;;;;;;7390351;19;20003;-79
2022/06/04 06:30:58;;;;;;;2.50;1.10;;;;;;;;;;7392249;19;20018;-79
2022/06/04 06:33:24;;;;;;;1.30;1.20;;;;;;;;;;7387889;19;20365;-80
2022/06/04 06:36:01;;;;;;;1.20;1.10;;;;;;;;;;7389518;19;20010;-80
2022/06/04 06:38:28;;;;;;;1.05;1.00;;;;;;;;;;7388343;19;20256;-79
2022/06/04 06:40:55;;;;;;;1.40;1.20;;;;;;;;;;7392671;19;20010;-80
2022/06/04 06:43:21;;;;;;;4.40;1.33;;;;;;;;;;7395233;19;20119;-80
2022/06/04 06:45:47;;;;;;;2.90;1.35;;;;;;;;;;7397799;19;20508;-79
2022/06/04 06:48:13;;;;;;;1.50;1.30;;;;;;;;;;7396872;19;20018;-80
2022/06/04 06:50:39;;;;;;;1.85;1.05;;;;;;;;;;7399289;19;20010;-81
2022/06/04 06:53:05;;;;;;;2.35;1.20;;;;;;;;;;7403050;19;20003;-81
2022/06/04 06:55:30;;;;;;;1.83;1.20;;;;;;;;;;7399793;19;20014;-81
2022/06/04 06:57:56;;;;;;;1.38;1.23;;;;;;;;;;7398734;19;20021;-80
2022/06/04 07:00:21;;;;;;;1.38;1.10;;;;;;;;;;7396905;19;20302;-79
2022/06/04 07:02:46;;;;;;;1.48;1.38;;;;;;;;;;7394378;19;19998;-79
2022/06/04 07:05:13;;;;;;;1.65;1.27;;;;;;;;;;7391883;19;20104;-79
2022/06/04 07:07:39;;;;;;;2.35;1.33;;;;;;;;;;7395664;19;20026;-79
2022/06/04 07:10:04;;;;;;;1.45;1.20;;;;;;;;;;7395762;19;20016;-80
2022/06/04 07:12:31;;;;;;;1.30;1.20;;;;;;;;;;7397161;19;20003;-80
2022/06/04 07:14:57;;;;;;;1.65;1.50;;;;;;;;;;7395812;19;20031;-79
2022/06/04 07:17:22;;;;;;;1.42;1.30;;;;;;;;;;7394511;19;20003;-81
2022/06/04 07:19:48;;;;;;;1.67;1.40;;;;;;;;;;7400304;19;20011;-80
2022/06/04 07:22:13;;;;;;;1.98;1.55;;;;;;;;;;7398975;19;20009;-80
2022/06/04 07:24:39;;;;;;;2.83;1.60;;;;;;;;;;7393915;19;20739;-81
2022/06/04 07:27:05;;;;;;;2.33;1.20;;;;;;;;;;7399322;19;20033;-81
2022/06/04 07:29:30;;;;;;;6.25;1.48;;;;;;;;;;7399063;19;20037;-80
2022/06/04 07:31:55;;;;;;;2.30;1.02;;;;;;;;;;7418307;19;20021;-80
2022/06/04 07:34:21;;;;;;;1.33;1.17;;;;;;;;;;7420785;19;20010;-81
2022/06/04 07:36:46;;;;;;;1.95;1.20;;;;;;;;;;7423243;19;20063;-81
2022/06/04 07:39:14;;;;;;;1.95;1.10;;;;;;;;;;7420764;19;20002;-82
2022/06/04 07:41:43;;;;;;;1.20;1.10;;;;;;;;;;7400070;19;20018;-82
2022/06/04 07:44:09;;;;;;;2.95;1.55;;;;;;;;;;7398596;19;20003;-81
2022/06/04 07:46:36;;;;;;;2.42;1.27;;;;;;;;;;7397386;19;20018;-80
2022/06/04 07:49:04;;;;;;;1.38;1.05;;;;;;;;;;7393460;19;20007;-81
2022/06/04 07:51:35;;;;;;;1.00;0.95;;;;;;;;;;7392194;19;20011;-82
2022/06/04 07:54:00;;;;;;;1.38;1.13;;;;;;;;;;7391736;19;20265;-81
2022/06/04 07:56:26;;;;;;;2.05;1.05;;;;;;;;;;7393143;19;20086;-81
2022/06/04 07:58:52;;;;;;;5.38;1.13;;;;;;;;;;7389603;19;20031;-80
2022/06/04 08:01:21;;;;;;;2.17;1.23;;;;;;;;;;7394837;19;20016;-81
2022/06/04 08:03:48;;;;;;;2.78;1.13;;;;;;;;;;7389566;19;20015;-81
2022/06/04 08:06:17;;;;;;;1.10;1.00;;;;;;;;;;7393664;19;20014;-82
2022/06/04 08:08:43;;;;;;;1.23;1.13;;;;;;;;;;7391061;19;21411;-80
2022/06/04 08:13:53;;;;;;;1.10;1.00;;;;;;;;;;7393624;19;20021;-82
2022/06/04 08:16:19;;;;;;;1.70;1.17;;;;;;;;;;7394178;19;20276;-81
2022/06/04 08:18:45;;;;;;;2.78;1.00;;;;;;;;;;7392681;19;20042;-81
2022/06/04 08:21:11;;;;;;;2.83;1.40;;;;;;;;;;7392034;19;20451;-81
2022/06/04 08:23:39;;;;;;;1.00;0.90;;;;;;;;;;7391659;19;20018;-80
2022/06/04 08:26:07;;;;;;;1.20;0.95;;;;;;;;;;7399799;19;20002;-80
2022/06/04 08:28:33;;;;;;;1.08;0.90;;;;;;;;;;7400826;19;20003;-83
2022/06/04 08:31:05;;;;;;;1.77;1.00;;;;;;;;;;7392816;19;20457;-81
2022/06/04 08:33:30;;;;;;;1.45;1.02;;;;;;;;;;7388809;19;20491;-79
2022/06/04 08:35:56;;;;;;;1.45;0.90;;;;;;;;;;7388233;19;20160;-80
2022/06/04 08:38:21;;;;;;;1.63;1.10;;;;;;;;;;7390958;19;20010;-81
2022/06/04 08:40:56;;;;;;;3.45;1.20;;;;;;;;;;7392159;19;20037;-80
2022/06/04 08:43:44;;;;;;;2.20;1.10;;;;;;;;;;7390960;19;20006;-80
2022/06/04 08:46:16;;;;;;;6.43;1.00;;;;;;;;;;7392412;19;20033;-78
2022/06/04 08:48:42;;;;;;;1.55;1.13;;;;;;;;;;7392409;19;20018;-79
2022/06/04 08:51:19;;;;;;;3.70;1.10;;;;;;;;;;7394046;19;20038;-80
2022/06/04 08:53:49;;;;;;;2.20;1.10;;;;;;;;;;7390878;19;20041;-80
2022/06/04 08:59:16;;;;;;;2.15;1.17;;;;;;;;;;7395780;19;20139;-79
2022/06/04 09:02:04;;;;;;;2.65;1.05;;;;;;;;;;7390581;19;20119;-79
2022/06/04 09:04:36;;;;;;;1.33;1.10;;;;;;;;;;7390447;19;20025;-80
2022/06/04 09:07:01;;;;;;;1.13;0.70;;;;;;;;;;7390277;19;20022;-79
2022/06/04 09:09:39;;;;;;;2.65;0.93;;;;;;;;;;7391905;19;20024;-79
2022/06/04 09:12:35;;;;;;;1.38;0.90;;;;;;;;;;7394278;19;20063;-78
2022/06/04 09:15:22;;;;;;;3.22;1.20;;;;;;;;;;7393740;19;20055;-79
2022/06/04 09:17:54;;;;;;;2.35;1.30;;;;;;;;;;7393869;19;20035;-79
2022/06/04 09:20:42;;;;;;;1.73;1.10;;;;;;;;;;7393199;19;20038;-79
2022/06/04 09:23:26;;;;;;;1.52;1.00;;;;;;;;;;7392622;19;20056;-78
2022/06/04 09:25:58;;;;;;;2.45;1.25;;;;;;;;;;7394101;19;20358;-79
2022/06/04 09:29:05;;;;;;;2.17;1.10;;;;;;;;;;7391743;19;20011;-78
2022/06/04 09:31:55;;;;;;;2.45;0.90;;;;;;;;;;7394073;19;20078;-78
2022/06/04 09:34:31;;;;;;;1.73;1.20;;;;;;;;;;7393517;19;20007;-79
2022/06/04 09:36:57;;;;;;;1.45;1.10;;;;;;;;;;7392708;19;20154;-79
2022/06/04 09:39:32;;;;;;;1.92;1.20;;;;;;;;;;7394089;19;20011;-78
2022/06/04 09:42:19;;;;;;;3.53;1.30;;;;;;;;;;7392622;19;20007;-78
2022/06/04 09:45:05;;;;;;;2.75;1.45;;;;;;;;;;7390646;19;20010;-79
2022/06/04 09:47:44;;;;;;;5.60;1.20;;;;;;;;;;7392355;19;20080;-78
2022/06/04 09:50:24;;;;;;;2.45;1.48;;;;;;;;;;7392798;19;20071;-79
2022/06/04 09:53:03;;;;;;;1.77;1.33;;;;;;;;;;7391764;19;20018;-79
2022/06/04 09:55:31;;;;;;;1.60;1.50;;;;;;;;;;7391159;19;20014;-79
2022/06/04 09:58:07;;;;;;;2.50;1.67;;;;;;;;;;7391036;19;19999;-78
2022/06/04 10:00:38;;;;;;;4.38;1.50;;;;;;;;;;7393189;19;20017;-79
2022/06/04 10:03:18;;;;;;;3.17;1.70;;;;;;;;;;7386616;19;20073;-78
2022/06/04 10:06:01;;;;;;;4.85;1.52;;;;;;;;;;7394776;19;20014;-79
2022/06/04 10:08:29;;;;;;;1.58;1.38;;;;;;;;;;7388488;19;20045;-78
2022/06/04 10:11:04;;;;;;;5.00;1.38;;;;;;;;;;7392300;19;20007;-78
2022/06/04 10:13:48;;;;;;;2.17;1.52;;;;;;;;;;7390976;19;20011;-79
2022/06/04 10:16:33;;;;;;;2.33;1.70;;;;;;;;;;7395547;19;20006;-78
2022/06/04 10:19:24;;;;;;;1.55;1.42;;;;;;;;;;7391745;19;20748;-79
2022/06/04 10:22:04;;;;;;;3.40;1.27;;;;;;;;;;7398454;19;20019;-79
2022/06/04 10:24:34;;;;;;;6.57;2.08;;;;;;;;;;7399647;19;20017;-79
2022/06/04 10:27:12;;;;;;;2.90;1.42;;;;;;;;;;7399386;19;20049;-79
2022/06/04 10:29:59;;;;;;;3.03;1.70;;;;;;;;;;7399144;19;20037;-79
2022/06/04 10:32:40;;;;;;;1.58;1.40;;;;;;;;;;7397901;19;20017;-79
2022/06/04 10:35:21;;;;;;;2.00;1.77;;;;;;;;;;7396692;19;20006;-78
2022/06/04 10:38:06;;;;;;;3.40;1.50;;;;;;;;;;7395443;19;20492;-78
2022/06/04 10:40:41;;;;;;;2.00;1.70;;;;;;;;;;7399280;19;20010;-78
2022/06/04 10:43:34;;;;;;;2.25;1.58;;;;;;;;;;7396101;19;20035;-79
2022/06/04 10:46:30;;;;;;;2.75;1.73;;;;;;;;;;7398966;19;20014;-78
2022/06/04 10:49:14;;;;;;;3.17;1.92;;;;;;;;;;7394603;19;20621;-77
2022/06/04 10:52:04;;;;;;;1.85;1.35;;;;;;;;;;7398924;19;20003;-78
2022/06/04 10:54:29;;;;;;;3.45;1.30;;;;;;;;;;7397355;19;20042;-79
2022/06/04 10:57:07;;;;;;;4.60;1.50;;;;;;;;;;7399085;19;20014;-78
2022/06/04 10:59:48;;;;;;;1.95;1.77;;;;;;;;;;7398521;19;20023;-79
2022/06/04 11:02:39;;;;;;;7.68;1.77;;;;;;;;;;7391857;19;20016;-78
2022/06/04 11:05:12;;;;;;;3.42;1.80;;;;;;;;;;7398132;19;20090;-78
2022/06/04 11:08:01;;;;;;;3.55;1.90;;;;;;;;;;7399496;19;20015;-77
2022/06/04 11:10:34;;;;;;;1.80;1.63;;;;;;;;;;7395324;19;20002;-78
2022/06/04 11:13:08;;;;;;;2.83;1.60;;;;;;;;;;7397131;19;20350;-78
2022/06/04 11:15:41;;;;;;;3.28;1.88;;;;;;;;;;7397993;19;20306;-79
2022/06/04 11:18:16;;;;;;;1.75;1.65;;;;;;;;;;7396529;19;20034;-78
2022/06/04 11:21:20;;;;;;;2.08;1.52;;;;;;;;;;7392383;19;20013;-79
2022/06/04 11:24:29;;;;;;;2.50;1.90;;;;;;;;;;7393158;19;20029;-79
2022/06/04 11:27:11;;;;;;;2.97;2.03;;;;;;;;;;7398378;19;20022;-79
2022/06/04 11:29:38;;;;;;;3.42;2.10;;;;;;;;;;7391824;19;19999;-78
2022/06/04 11:32:24;;;;;;;3.88;1.92;;;;;;;;;;7393471;19;20011;-78
2022/06/04 11:35:15;;;;;;;2.58;1.80;;;;;;;;;;7393304;19;20015;-78
2022/06/04 11:38:10;;;;;;;1.83;1.67;;;;;;;;;;7392781;19;20006;-79
2022/06/04 11:40:57;;;;;;;4.75;1.67;;;;;;;;;;7394343;19;20047;-78
2022/06/04 11:44:05;;;;;;;2.25;1.77;;;;;;;;;;7388455;19;20081;-77
2022/06/04 11:47:11;;;;;;;4.35;2.10;;;;;;;;;;7388063;19;20006;-77
2022/06/04 11:49:47;;;;;;;4.00;1.90;;;;;;;;;;7387716;19;20002;-78
2022/06/04 11:52:23;;;;;;;2.13;1.90;;;;;;;;;;7400223;19;20070;-77
2022/06/04 11:54:57;;;;;;;3.80;2.25;;;;;;;;;;7391378;19;20035;-77
2022/06/04 11:57:25;;;;;;;2.53;1.98;;;;;;;;;;7395099;19;20010;-77
2022/06/04 11:59:53;;;;;;;2.28;2.08;;;;;;;;;;7393723;19;20018;-77
2022/06/04 12:02:19;;;;;;;2.65;1.60;;;;;;;;;;7392781;19;20009;-77
2022/06/04 12:05:06;;;;;;;1.38;1.27;;;;;;;;;;7391692;19;20018;-77
2022/06/04 12:07:44;;;;;;;2.20;1.33;;;;;;;;;;7393482;19;20364;-77
2022/06/04 12:10:32;;;;;;;2.97;1.38;;;;;;;;;;7394941;19;20409;-77
2022/06/04 12:13:06;;;;;;;1.88;1.50;;;;;;;;;;7394834;19;20029;-77
2022/06/04 12:15:43;;;;;;;1.42;1.20;;;;;;;;;;7395634;19;20026;-77
2022/06/04 12:18:30;;;;;;;2.08;1.42;;;;;;;;;;7392153;19;20076;-78
2022/06/04 12:26:37;;;;;;;2.22;1.40;;;;;;;;;;7393049;19;20134;-77
2022/06/04 12:29:23;;;;;;;2.13;1.40;;;;;;;;;;7387615;19;20006;-77
2022/06/04 12:32:13;;;;;;;2.78;1.70;;;;;;;;;;7391090;19;20456;-77
2022/06/04 12:34:40;;;;;;;3.10;1.30;;;;;;;;;;7386891;19;20337;-77
2022/06/04 12:37:21;;;;;;;3.10;1.27;;;;;;;;;;7389224;19;20465;-77
2022/06/04 12:39:47;;;;;;;3.47;1.60;;;;;;;;;;7388424;19;20479;-77
2022/06/04 12:42:14;;;;;;;2.95;1.50;;;;;;;;;;7391794;19;20058;-77
2022/06/04 12:44:42;;;;;;;3.90;1.50;;;;;;;;;;7388465;19;20025;-76
2022/06/04 12:47:32;;;;;;;2.38;1.48;;;;;;;;;;7389275;19;20388;-77
2022/06/04 12:50:07;;;;;;;2.20;1.20;;;;;;;;;;7387636;19;20014;-76
2022/06/04 12:52:44;;;;;;;2.47;1.40;;;;;;;;;;7386520;19;20002;-76
2022/06/04 12:55:24;;;;;;;2.35;1.45;;;;;;;;;;7386822;19;20010;-77
2022/06/04 12:57:49;;;;;;;5.32;1.30;;;;;;;;;;7386015;19;20102;-76
2022/06/04 13:00:18;;;;;;;3.83;1.70;;;;;;;;;;7387633;19;20470;-76
2022/06/04 13:02:55;;;;;;;1.80;1.30;;;;;;;;;;7385712;19;20002;-77
2022/06/04 13:05:25;;;;;;;2.85;1.60;;;;;;;;;;7387004;19;20013;-77
2022/06/04 13:08:01;;;;;;;2.60;1.45;;;;;;;;;;7386438;19;20010;-77
2022/06/04 13:10:33;;;;;;;2.47;1.40;;;;;;;;;;7386383;19;20014;-77
2022/06/04 13:13:23;;;;;;;3.63;1.30;;;;;;;;;;7385994;19;20021;-78
2022/06/04 13:15:55;;;;;;;4.10;1.50;;;;;;;;;;7387745;19;20018;-77
2022/06/04 13:18:31;;;;;;;3.00;1.40;;;;;;;;;;7383201;19;20007;-77
2022/06/04 13:20:59;;;;;;;3.17;1.65;;;;;;;;;;7387412;19;20085;-77
2022/06/04 13:23:50;;;;;;;4.95;2.03;;;;;;;;;;7382454;19;20024;-76
2022/06/04 13:26:30;;;;;;;4.13;1.70;;;;;;;;;;7387001;19;20502;-76
2022/06/04 13:28:56;;;;;;;2.47;1.70;;;;;;;;;;7380746;19;20114;-77
2022/06/04 13:31:30;;;;;;;3.22;1.92;;;;;;;;;;7385261;19;20038;-76
2022/06/04 13:34:12;;;;;;;4.28;2.05;;;;;;;;;;7383221;19;20051;-76
2022/06/04 13:36:37;;;;;;;3.78;1.58;;;;;;;;;;7387355;19;20302;-77
2022/06/04 13:39:03;;;;;;;4.45;2.30;;;;;;;;;;7383560;19;20014;-77
2022/06/04 13:44:23;;;;;;;3.83;1.60;;;;;;;;;;7384720;19;20015;-77
2022/06/04 13:46:49;;;;;;;3.22;1.50;;;;;;;;;;7385211;19;20456;-77
2022/06/04 13:49:25;;;;;;;3.97;1.70;;;;;;;;;;7243841;19;2754382;-77
2022/06/04 13:52:21;;;;;;;1.58;1.48;;;;;;;;;;7393667;19;20039;-77
2022/06/04 13:54:52;;;;;;;2.47;1.55;;;;;;;;;;7393158;19;20095;-77
2022/06/04 13:57:32;;;;;;;5.50;1.80;;;;;;;;;;7395024;19;20014;-78
2022/06/04 14:00:05;;;;;;;3.45;1.60;;;;;;;;;;7397256;19;20007;-77
2022/06/04 14:02:31;;;;;;;4.22;1.90;;;;;;;;;;7396009;19;20010;-78
2022/06/04 14:07:46;;;;;;;2.22;1.25;;;;;;;;;;7394264;19;20106;-78
2022/06/04 14:10:19;;;;;;;3.53;1.40;;;;;;;;;;7397306;19;20010;-78
2022/06/04 14:13:07;;;;;;;2.05;1.40;;;;;;;;;;7398158;19;20014;-77
2022/06/04 14:15:54;;;;;;;4.43;1.80;;;;;;;;;;7395934;19;19998;-77
2022/06/04 14:18:22;;;;;;;2.03;1.40;;;;;;;;;;7395772;19;20086;-77
2022/06/04 14:20:57;;;;;;;3.33;1.63;;;;;;;;;;7393920;19;20019;-77
2022/06/04 14:23:31;;;;;;;2.45;1.30;;;;;;;;;;7391256;19;20441;-76
2022/06/04 14:26:10;;;;;;;2.65;1.40;;;;;;;;;;7396236;19;20014;-77
2022/06/04 14:29:21;;;;;;;2.45;1.40;;;;;;;;;;7392690;19;20043;-77
2022/06/04 14:32:20;;;;;;;1.85;1.38;;;;;;;;;;7392836;19;20349;-77
2022/06/04 14:34:47;;;;;;;2.42;1.23;;;;;;;;;;7392479;19;20586;-77
2022/06/04 14:37:20;;;;;;;3.55;1.95;;;;;;;;;;7394532;19;20010;-77
2022/06/04 14:39:46;;;;;;;2.23;1.47;;;;;;;;;;7394572;19;20002;-77
2022/06/04 14:42:39;;;;;;;2.33;1.50;;;;;;;;;;7394363;19;20122;-78
2022/06/04 14:45:15;;;;;;;2.95;1.40;;;;;;;;;;7392717;19;20011;-77
2022/06/04 14:47:55;;;;;;;2.80;1.63;;;;;;;;;;7394261;19;20010;-77
2022/06/04 14:50:36;;;;;;;1.33;1.23;;;;;;;;;;7396671;19;20081;-77
2022/06/04 14:53:04;;;;;;;2.90;1.40;;;;;;;;;;7394176;19;20011;-77
2022/06/04 14:56:06;;;;;;;2.97;1.50;;;;;;;;;;7391241;19;20035;-77
2022/06/04 14:58:40;;;;;;;2.45;1.40;;;;;;;;;;7392870;19;20050;-78
2022/06/04 15:01:19;;;;;;;1.20;1.10;;;;;;;;;;7394928;19;19999;-78
2022/06/04 15:04:13;;;;;;;1.73;1.23;;;;;;;;;;7389316;19;20038;-78
2022/06/04 15:07:02;;;;;;;1.77;1.30;;;;;;;;;;7393903;19;20006;-78
2022/06/04 15:10:01;;;;;;;4.00;1.60;;;;;;;;;;7394584;19;20024;-78
2022/06/04 15:12:47;;;;;;;1.95;1.60;;;;;;;;;;7392528;19;20014;-78
2022/06/04 15:15:15;;;;;;;2.63;1.58;;;;;;;;;;7392097;19;20006;-78
2022/06/04 15:18:04;;;;;;;1.90;1.38;;;;;;;;;;7391551;19;20006;-78
2022/06/04 15:21:07;;;;;;;2.60;1.40;;;;;;;;;;7392664;19;20640;-78
2022/06/04 15:24:01;;;;;;;1.65;1.38;;;;;;;;;;7388340;19;20010;-77
2022/06/04 15:26:27;;;;;;;1.35;1.25;;;;;;;;;;7393700;19;20007;-78
2022/06/04 15:34:47;;;;;;;10.50;6.45;;;;;;;;;;7391325;19;20103;-77
2022/06/04 15:37:40;;;;;;;6.55;2.88;;;;;;;;;;7393399;19;20018;-77
2022/06/04 15:40:14;;;;;;;3.20;1.70;;;;;;;;;;7393566;19;20007;-77
2022/06/04 15:42:52;;;;;;;2.15;1.85;;;;;;;;;;7393671;19;20017;-78
2022/06/04 15:45:33;;;;;;;4.72;2.40;;;;;;;;;;7391292;19;20049;-78
2022/06/04 15:48:04;;;;;;;9.15;5.43;;;;;;;;;;7392238;19;20039;-78
2022/06/04 15:56:22;;;;;;;8.48;5.38;;;;;;;;;;7397460;19;20037;-78